createdAt,value
2018-09-29T00:02:03.482Z,2.00
2018-09-29T00:04:31.214Z,2.30
2018-09-29T00:06:58.777Z,2.57
2018-09-29T00:09:26.412Z,2.30
2018-09-29T00:11:53.950Z,2.30
2018-09-29T00:14:21.520Z,2.23
2018-09-29T00:16:49.073Z,2.37
2018-09-29T00:19:16.605Z,2.63
2018-09-29T00:21:44.173Z,2.23
2018-09-29T00:24:11.689Z,3.10
2018-09-29T00:26:39.272Z,2.70
2018-09-29T00:29:06.795Z,1.90
2018-09-29T00:31:34.322Z,2.60
2018-09-29T00:34:01.900Z,2.47
2018-09-29T00:36:29.465Z,2.20
2018-09-29T00:38:57.122Z,2.50
2018-09-29T00:41:24.684Z,2.30
2018-09-29T00:43:52.209Z,2.43
2018-09-29T00:46:19.893Z,2.40
2018-09-29T00:48:47.465Z,2.10
2018-09-29T00:51:15.004Z,2.60
2018-09-29T00:53:42.604Z,2.50
2018-09-29T00:56:10.202Z,2.40
2018-09-29T00:58:37.754Z,2.20
2018-09-29T01:01:05.305Z,2.63
2018-09-29T01:03:33.096Z,2.75
2018-09-29T01:06:00.702Z,2.70
2018-09-29T01:08:28.245Z,2.65
2018-09-29T01:10:55.806Z,2.67
2018-09-29T01:13:23.356Z,2.22
2018-09-29T01:15:50.880Z,2.50
2018-09-29T01:18:18.503Z,2.67
2018-09-29T01:20:46.041Z,2.43
2018-09-29T01:23:13.647Z,2.60
2018-09-29T01:25:41.187Z,1.97
2018-09-29T01:28:08.747Z,2.28
2018-09-29T01:30:36.326Z,2.60
2018-09-29T01:33:03.909Z,2.47
2018-09-29T01:35:31.482Z,2.47
2018-09-29T01:37:59.012Z,2.20
2018-09-29T01:40:26.575Z,1.95
2018-09-29T01:42:54.143Z,2.77
2018-09-29T01:45:21.744Z,2.23
2018-09-29T01:47:49.292Z,2.67
2018-09-29T01:50:17.406Z,2.57
2018-09-29T01:52:44.987Z,2.70
2018-09-29T01:55:12.513Z,2.60
2018-09-29T01:57:40.075Z,2.10
2018-09-29T02:00:07.596Z,2.40
2018-09-29T02:02:35.286Z,2.33
2018-09-29T02:05:02.733Z,2.30
2018-09-29T02:07:30.318Z,2.60
2018-09-29T02:09:57.886Z,2.27
2018-09-29T02:12:25.430Z,2.87
2018-09-29T02:14:53.015Z,2.27
2018-09-29T02:17:20.730Z,2.57
2018-09-29T02:19:48.291Z,2.97
2018-09-29T02:22:15.816Z,2.57
2018-09-29T02:24:43.397Z,2.35
2018-09-29T02:27:10.926Z,2.63
2018-09-29T02:29:38.544Z,2.70
2018-09-29T02:32:06.089Z,2.27
2018-09-29T02:34:33.922Z,2.65
2018-09-29T02:37:01.482Z,2.23
2018-09-29T02:39:29.079Z,2.20
2018-09-29T02:41:56.613Z,2.73
2018-09-29T02:44:24.144Z,1.80
2018-09-29T02:46:51.713Z,2.33
2018-09-29T02:49:19.223Z,2.53
2018-09-29T02:51:46.779Z,2.75
2018-09-29T02:54:14.345Z,2.67
2018-09-29T02:56:41.944Z,3.07
2018-09-29T02:59:09.507Z,3.30
2018-09-29T03:01:37.043Z,3.00
2018-09-29T03:04:04.640Z,3.17
2018-09-29T03:06:32.380Z,3.17
2018-09-29T03:08:59.989Z,2.80
2018-09-29T03:11:27.595Z,3.10
2018-09-29T03:13:55.112Z,2.83
2018-09-29T03:16:22.707Z,3.35
2018-09-29T03:18:50.279Z,3.60
2018-09-29T03:21:17.855Z,3.17
2018-09-29T03:23:45.426Z,3.03
2018-09-29T03:26:12.992Z,3.07
2018-09-29T03:28:40.722Z,3.20
2018-09-29T03:31:08.278Z,3.23
2018-09-29T03:33:35.805Z,3.10
2018-09-29T03:36:03.348Z,3.20
2018-09-29T03:38:30.918Z,3.10
2018-09-29T03:40:58.716Z,3.07
2018-09-29T03:43:26.264Z,3.87
2018-09-29T03:45:53.788Z,3.23
2018-09-29T03:48:21.360Z,3.33
2018-09-29T03:50:48.880Z,3.60
2018-09-29T03:53:16.467Z,3.60
2018-09-29T03:55:43.984Z,3.30
2018-09-29T03:58:11.528Z,3.70
2018-09-29T04:00:39.132Z,3.70
2018-09-29T04:03:06.675Z,3.25
2018-09-29T04:05:34.187Z,3.33
2018-09-29T04:08:01.788Z,3.50
2018-09-29T04:10:29.360Z,3.10
2018-09-29T04:12:56.913Z,3.83
2018-09-29T04:15:24.456Z,3.63
2018-09-29T04:17:52.036Z,3.27
2018-09-29T04:20:19.600Z,3.33
2018-09-29T04:22:47.170Z,3.50
2018-09-29T04:25:14.696Z,3.90
2018-09-29T04:27:42.223Z,3.17
2018-09-29T04:30:10.014Z,3.40
2018-09-29T04:32:37.534Z,3.43
2018-09-29T04:35:05.053Z,3.63
2018-09-29T04:37:32.639Z,3.73
2018-09-29T04:40:00.146Z,3.60
2018-09-29T04:42:27.685Z,4.20
2018-09-29T04:44:55.229Z,4.10
2018-09-29T04:47:22.798Z,4.80
2018-09-29T04:49:50.405Z,4.37
2018-09-29T04:52:17.990Z,4.63
2018-09-29T04:54:45.553Z,4.80
2018-09-29T04:57:13.095Z,5.17
2018-09-29T04:59:40.697Z,5.00
2018-09-29T05:02:08.224Z,5.73
2018-09-29T05:04:35.816Z,5.47
2018-09-29T05:07:03.340Z,6.17
2018-09-29T05:09:30.900Z,5.40
2018-09-29T05:11:58.487Z,5.57
2018-09-29T05:14:26.056Z,5.60
2018-09-29T05:16:53.908Z,5.70
2018-09-29T05:19:21.500Z,5.90
2018-09-29T05:21:49.061Z,5.57
2018-09-29T05:24:16.660Z,5.17
2018-09-29T05:26:44.314Z,5.60
2018-09-29T05:29:11.848Z,4.83
2018-09-29T05:31:39.421Z,5.20
2018-09-29T05:34:06.971Z,4.97
2018-09-29T05:36:34.536Z,6.33
2018-09-29T05:39:02.124Z,5.43
2018-09-29T05:41:29.773Z,5.17
2018-09-29T05:43:57.464Z,5.47
2018-09-29T05:46:24.989Z,5.13
2018-09-29T05:48:52.565Z,4.80
2018-09-29T05:51:20.151Z,4.63
2018-09-29T05:53:47.908Z,5.13
2018-09-29T05:56:15.463Z,5.50
2018-09-29T05:58:43.027Z,5.73
2018-09-29T06:01:10.538Z,5.20
2018-09-29T06:03:38.247Z,5.17
2018-09-29T06:06:05.937Z,4.83
2018-09-29T06:08:33.589Z,5.23
2018-09-29T06:11:01.146Z,4.60
2018-09-29T06:13:28.816Z,5.10
2018-09-29T06:15:56.550Z,4.73
2018-09-29T06:18:24.173Z,4.13
2018-09-29T06:20:51.774Z,4.40
2018-09-29T06:23:19.401Z,4.50
2018-09-29T06:25:46.934Z,4.83
2018-09-29T06:28:14.676Z,4.30
2018-09-29T06:30:42.213Z,4.43
2018-09-29T06:33:09.762Z,4.60
2018-09-29T06:35:37.284Z,4.00
2018-09-29T06:38:04.843Z,4.57
2018-09-29T06:40:32.402Z,3.80
2018-09-29T06:42:59.975Z,4.03
2018-09-29T06:45:27.493Z,4.57
2018-09-29T06:47:55.062Z,4.70
2018-09-29T06:50:22.644Z,5.60
2018-09-29T06:52:50.204Z,5.23
2018-09-29T06:55:17.751Z,6.33
2018-09-29T06:57:45.322Z,5.60
2018-09-29T07:00:12.938Z,6.33
2018-09-29T07:02:40.509Z,6.80
2018-09-29T07:05:08.115Z,6.77
2018-09-29T07:07:35.655Z,5.63
2018-09-29T07:10:03.182Z,5.37
2018-09-29T07:12:30.930Z,4.80
2018-09-29T07:14:58.467Z,4.90
2018-09-29T07:17:26.433Z,5.03
2018-09-29T07:19:54.615Z,4.50
2018-09-29T07:22:24.190Z,4.80
2018-09-29T07:24:52.521Z,4.67
2018-09-29T07:27:20.483Z,4.37
2018-09-29T07:29:48.537Z,3.93
2018-09-29T07:32:17.346Z,3.90
2018-09-29T07:34:45.328Z,3.70
2018-09-29T07:37:13.973Z,4.20
2018-09-29T07:39:41.538Z,3.87
2018-09-29T07:42:09.192Z,3.43
2018-09-29T07:44:37.611Z,3.37
2018-09-29T07:47:05.377Z,3.60
2018-09-29T07:49:33.207Z,3.40
2018-09-29T07:52:00.817Z,3.73
2018-09-29T07:54:28.395Z,4.03
2018-09-29T07:56:55.950Z,3.83
2018-09-29T07:59:23.469Z,4.70
2018-09-29T08:01:51.045Z,3.57
2018-09-29T08:04:18.616Z,3.40
2018-09-29T08:06:46.327Z,2.87
2018-09-29T08:09:14.008Z,3.20
2018-09-29T08:11:41.610Z,3.10
2018-09-29T08:14:09.289Z,3.30
2018-09-29T08:16:37.076Z,3.55
2018-09-29T08:19:05.035Z,3.90
2018-09-29T08:21:32.810Z,3.20
2018-09-29T08:24:00.523Z,2.77
2018-09-29T08:26:28.049Z,2.97
2018-09-29T08:28:55.610Z,3.00
2018-09-29T08:31:23.204Z,3.07
2018-09-29T08:33:50.795Z,2.97
2018-09-29T08:36:18.531Z,3.03
2018-09-29T08:38:46.252Z,3.50
2018-09-29T08:41:14.107Z,3.57
2018-09-29T08:43:41.660Z,3.87
2018-09-29T08:46:09.500Z,3.10
2018-09-29T08:48:37.048Z,3.40
2018-09-29T08:51:04.757Z,3.40
2018-09-29T08:53:37.268Z,2.67
2018-09-29T08:56:05.542Z,2.43
2018-09-29T08:58:33.344Z,2.67
2018-09-29T09:01:00.935Z,2.10
2018-09-29T09:03:28.691Z,2.50
2018-09-29T09:05:56.565Z,2.93
2018-09-29T09:08:24.206Z,3.08
2018-09-29T09:10:51.818Z,2.83
2018-09-29T09:13:19.635Z,2.30
2018-09-29T09:15:47.223Z,2.27
2018-09-29T09:18:14.795Z,1.80
2018-09-29T09:20:42.500Z,1.90
2018-09-29T09:23:10.101Z,1.87
2018-09-29T09:25:37.909Z,2.00
2018-09-29T09:28:05.493Z,1.90
2018-09-29T09:30:33.241Z,1.90
2018-09-29T09:33:00.891Z,1.73
2018-09-29T09:35:28.539Z,1.50
2018-09-29T09:37:56.235Z,2.00
2018-09-29T09:40:23.911Z,1.77
2018-09-29T09:42:51.666Z,1.83
2018-09-29T09:45:19.272Z,2.20
2018-09-29T09:47:47.030Z,1.70
2018-09-29T09:50:14.850Z,2.10
2018-09-29T09:52:42.537Z,1.37
2018-09-29T09:55:10.155Z,2.20
2018-09-29T09:57:37.713Z,1.57
2018-09-29T10:00:05.425Z,1.50
2018-09-29T10:02:33.198Z,1.20
2018-09-29T10:05:00.783Z,1.60
2018-09-29T10:07:28.413Z,1.43
2018-09-29T10:09:56.133Z,1.40
2018-09-29T10:12:23.685Z,1.33
2018-09-29T10:14:51.279Z,1.40
2018-09-29T10:17:18.954Z,1.40
2018-09-29T10:19:46.469Z,1.70
2018-09-29T10:22:14.080Z,1.73
2018-09-29T10:24:41.848Z,1.93
2018-09-29T10:27:10.228Z,1.80
2018-09-29T10:29:37.790Z,1.73
2018-09-29T10:32:05.471Z,1.83
2018-09-29T10:34:33.197Z,2.40
2018-09-29T10:37:01.112Z,1.70
2018-09-29T10:39:28.682Z,1.80
2018-09-29T10:41:56.363Z,1.57
2018-09-29T10:44:24.082Z,2.03
2018-09-29T10:46:51.695Z,1.70
2018-09-29T10:49:19.445Z,1.80
2018-09-29T10:51:46.954Z,2.47
2018-09-29T10:54:14.661Z,2.00
2018-09-29T10:56:42.296Z,2.03
2018-09-29T10:59:09.959Z,1.60
2018-09-29T11:01:37.534Z,2.00
2018-09-29T11:04:05.101Z,1.73
2018-09-29T11:06:32.742Z,1.42
2018-09-29T11:09:00.459Z,1.60
2018-09-29T11:11:27.994Z,1.60
2018-09-29T11:13:55.568Z,1.67
2018-09-29T11:16:23.112Z,1.73
2018-09-29T11:18:50.633Z,1.67
2018-09-29T11:21:18.197Z,1.50
2018-09-29T11:23:45.785Z,1.45
2018-09-29T11:26:13.348Z,1.43
2018-09-29T11:28:40.888Z,1.50
2018-09-29T11:31:08.564Z,1.43
2018-09-29T11:33:36.090Z,1.40
2018-09-29T11:36:03.678Z,1.63
2018-09-29T11:38:31.272Z,1.50
2018-09-29T11:40:58.841Z,1.30
2018-09-29T11:43:26.439Z,1.50
2018-09-29T11:45:53.960Z,1.60
2018-09-29T11:48:21.519Z,1.20
2018-09-29T11:50:49.044Z,1.43
2018-09-29T11:53:16.626Z,2.10
2018-09-29T11:55:44.148Z,1.30
2018-09-29T11:58:11.704Z,1.50
2018-09-29T12:00:39.263Z,1.33
2018-09-29T12:03:06.798Z,1.70
2018-09-29T12:05:34.338Z,1.27
2018-09-29T12:08:01.910Z,1.47
2018-09-29T12:10:29.441Z,1.80
2018-09-29T12:12:57.012Z,1.37
2018-09-29T12:15:24.543Z,1.57
2018-09-29T12:17:52.113Z,1.27
2018-09-29T12:20:19.664Z,1.20
2018-09-29T12:22:47.222Z,1.17
2018-09-29T12:25:14.749Z,1.10
2018-09-29T12:27:42.367Z,1.50
2018-09-29T12:30:09.914Z,1.63
2018-09-29T12:32:37.435Z,1.30
2018-09-29T12:35:04.997Z,1.37
2018-09-29T12:37:32.665Z,1.27
2018-09-29T12:40:00.167Z,1.17
2018-09-29T12:42:27.709Z,1.90
2018-09-29T12:44:55.316Z,1.30
2018-09-29T12:47:22.881Z,1.50
2018-09-29T12:49:50.471Z,1.30
2018-09-29T12:52:18.050Z,1.30
2018-09-29T12:54:45.578Z,1.30
2018-09-29T12:57:13.154Z,1.47
2018-09-29T12:59:40.704Z,1.63
2018-09-29T13:02:08.313Z,1.47
2018-09-29T13:04:35.840Z,1.40
2018-09-29T13:07:03.404Z,1.10
2018-09-29T13:09:30.956Z,1.10
2018-09-29T13:11:58.537Z,1.50
2018-09-29T13:14:26.064Z,1.20
2018-09-29T13:16:53.689Z,1.17
2018-09-29T13:19:21.155Z,1.60
2018-09-29T13:21:48.727Z,1.40
2018-09-29T13:24:16.263Z,1.60
2018-09-29T13:26:43.834Z,1.13
2018-09-29T13:29:11.357Z,1.40
2018-09-29T13:31:38.946Z,1.10
2018-09-29T13:34:06.488Z,1.40
2018-09-29T13:36:34.061Z,1.52
2018-09-29T13:39:01.598Z,1.10
2018-09-29T13:41:29.144Z,1.00
2018-09-29T13:43:56.709Z,1.13
2018-09-29T13:46:24.249Z,1.57
2018-09-29T13:48:51.850Z,1.20
2018-09-29T13:51:19.426Z,1.47
2018-09-29T13:53:46.981Z,1.13
2018-09-29T13:56:14.501Z,1.30
2018-09-29T13:58:42.121Z,1.43
2018-09-29T14:01:09.678Z,1.60
2018-09-29T14:03:37.276Z,1.30
2018-09-29T14:06:04.801Z,1.60
2018-09-29T14:08:32.649Z,1.50
2018-09-29T14:11:00.234Z,1.70
2018-09-29T14:13:27.874Z,1.07
2018-09-29T14:15:55.402Z,1.50
2018-09-29T14:18:22.977Z,1.30
2018-09-29T14:20:50.538Z,1.97
2018-09-29T14:23:18.069Z,1.20
2018-09-29T14:25:45.697Z,1.50
2018-09-29T14:28:13.298Z,1.30
2018-09-29T14:30:40.887Z,1.40
2018-09-29T14:33:08.449Z,1.20
2018-09-29T14:35:35.973Z,1.13
2018-09-29T14:38:03.543Z,1.17
2018-09-29T14:40:31.131Z,1.20
2018-09-29T14:42:58.887Z,1.57
2018-09-29T14:45:26.465Z,1.30
2018-09-29T14:47:54.057Z,1.50
2018-09-29T14:50:21.606Z,1.60
2018-09-29T14:52:49.230Z,1.33
2018-09-29T14:55:16.779Z,1.60
2018-09-29T14:57:44.356Z,1.30
2018-09-29T15:00:11.928Z,1.62
2018-09-29T15:02:39.496Z,1.10
2018-09-29T15:05:07.056Z,1.60
2018-09-29T15:07:34.636Z,1.40
2018-09-29T15:10:02.293Z,1.53
2018-09-29T15:12:29.836Z,1.33
2018-09-29T15:14:57.420Z,1.77
2018-09-29T15:17:25.005Z,1.40
2018-09-29T15:19:52.546Z,1.50
2018-09-29T15:22:20.065Z,1.33
2018-09-29T15:24:47.625Z,1.40
2018-09-29T15:27:15.325Z,1.40
2018-09-29T15:29:43.032Z,1.70
2018-09-29T15:32:10.600Z,1.73
2018-09-29T15:34:38.161Z,1.47
2018-09-29T15:37:05.826Z,1.37
2018-09-29T15:39:33.343Z,1.57
2018-09-29T15:42:01.021Z,1.33
2018-09-29T15:44:28.556Z,1.40
2018-09-29T15:46:56.120Z,1.40
2018-09-29T15:49:23.698Z,1.83
2018-09-29T15:51:51.238Z,1.77
2018-09-29T15:54:19.943Z,1.62
2018-09-29T15:56:47.525Z,1.50
2018-09-29T15:59:15.067Z,1.30
2018-09-29T16:01:42.595Z,1.55
2018-09-29T16:04:10.170Z,1.40
2018-09-29T16:06:37.719Z,1.58
2018-09-29T16:09:05.327Z,1.87
2018-09-29T16:11:32.846Z,1.60
2018-09-29T16:14:00.414Z,1.47
2018-09-29T16:16:28.007Z,1.83
2018-09-29T16:18:55.577Z,1.93
2018-09-29T16:21:23.132Z,1.50
2018-09-29T16:23:50.654Z,1.50
2018-09-29T16:26:18.243Z,1.30
2018-09-29T16:28:45.808Z,1.40
2018-09-29T16:31:13.340Z,1.83
2018-09-29T16:33:40.916Z,1.80
2018-09-29T16:36:08.562Z,1.57
2018-09-29T16:38:36.102Z,1.60
2018-09-29T16:41:03.618Z,1.73
2018-09-29T16:43:31.232Z,1.60
2018-09-29T16:45:58.785Z,1.60
2018-09-29T16:48:26.318Z,1.45
2018-09-29T16:50:53.875Z,1.57
2018-09-29T16:53:21.418Z,1.57
2018-09-29T16:55:48.985Z,1.83
2018-09-29T16:58:16.512Z,1.63
2018-09-29T17:00:44.073Z,2.03
2018-09-29T17:03:11.585Z,1.63
2018-09-29T17:05:39.210Z,1.60
2018-09-29T17:08:06.726Z,1.80
2018-09-29T17:10:34.284Z,1.80
2018-09-29T17:13:01.846Z,1.60
2018-09-29T17:15:29.437Z,1.70
2018-09-29T17:17:56.997Z,1.73
2018-09-29T17:20:24.544Z,1.83
2018-09-29T17:22:52.129Z,2.13
2018-09-29T17:25:19.724Z,2.30
2018-09-29T17:27:47.248Z,2.30
2018-09-29T17:30:14.777Z,2.20
2018-09-29T17:32:42.335Z,1.80
2018-09-29T17:35:09.909Z,2.03
2018-09-29T17:37:37.426Z,2.50
2018-09-29T17:40:04.991Z,2.40
2018-09-29T17:42:32.575Z,2.00
2018-09-29T17:45:01.291Z,2.00
2018-09-29T17:47:28.891Z,2.00
2018-09-29T17:49:56.402Z,2.27
2018-09-29T17:52:23.926Z,2.12
2018-09-29T17:54:51.470Z,2.10
2018-09-29T17:57:19.071Z,2.00
2018-09-29T17:59:46.591Z,2.40
2018-09-29T18:02:14.178Z,2.90
2018-09-29T18:04:41.756Z,3.17
2018-09-29T18:07:09.270Z,4.43
2018-09-29T18:09:36.827Z,3.20
2018-09-29T18:12:04.350Z,3.10
2018-09-29T18:14:32.099Z,4.30
2018-09-29T18:16:59.936Z,2.70
2018-09-29T18:19:27.670Z,2.17
2018-09-29T18:21:56.176Z,2.57
2018-09-29T18:24:24.331Z,2.58
2018-09-29T18:26:51.915Z,2.00
2018-09-29T18:29:19.593Z,2.13
2018-09-29T18:31:47.167Z,2.20
2018-09-29T18:34:14.820Z,2.80
2018-09-29T18:36:42.700Z,2.53
2018-09-29T18:39:10.354Z,3.10
2018-09-29T18:41:37.904Z,3.33
2018-09-29T18:44:05.537Z,3.10
2018-09-29T18:46:33.060Z,2.77
2018-09-29T18:49:00.656Z,2.63
2018-09-29T18:51:28.591Z,2.93
2018-09-29T18:53:56.311Z,3.30
2018-09-29T18:56:24.124Z,3.10
2018-09-29T18:58:51.642Z,3.10
2018-09-29T19:01:19.275Z,3.03
2018-09-29T19:03:46.850Z,2.90
2018-09-29T19:06:14.422Z,2.97
2018-09-29T19:08:42.078Z,2.73
2018-09-29T19:11:09.906Z,2.87
2018-09-29T19:13:47.562Z,3.00
2018-09-29T19:16:15.258Z,2.70
2018-09-29T19:18:43.133Z,2.10
2018-09-29T19:21:11.220Z,2.73
2018-09-29T19:23:39.308Z,2.30
2018-09-29T19:26:07.415Z,2.90
2018-09-29T19:31:12.736Z,3.27
2018-09-29T19:33:41.047Z,2.90
2018-09-29T19:36:12.260Z,3.13
2018-09-29T19:41:14.203Z,3.30
2018-09-29T19:43:42.208Z,4.57
2018-09-29T19:46:10.290Z,4.73
2018-09-29T19:48:37.978Z,4.80
2018-09-29T19:51:06.560Z,3.33
2018-09-29T19:53:34.913Z,3.43
2018-09-29T19:56:02.599Z,3.20
2018-09-29T19:58:30.255Z,2.67
2018-09-29T20:00:58.202Z,2.63
2018-09-29T20:03:25.847Z,2.70
2018-09-29T20:05:53.493Z,2.57
2018-09-29T20:08:21.424Z,2.43
2018-09-29T20:10:49.405Z,2.30
2018-09-29T20:13:17.337Z,2.70
2018-09-29T20:15:45.499Z,2.80
2018-09-29T20:18:13.613Z,3.00
2018-09-29T20:20:41.759Z,3.23
2018-09-29T20:23:09.435Z,3.10
2018-09-29T20:25:37.066Z,4.07
2018-09-29T20:28:04.690Z,3.65
2018-09-29T20:30:32.434Z,4.28
2018-09-29T20:33:00.105Z,3.57
2018-09-29T20:35:27.829Z,3.30
2018-09-29T20:37:56.157Z,3.30
2018-09-29T20:40:24.252Z,2.83
2018-09-29T20:42:51.949Z,3.00
2018-09-29T20:45:19.672Z,2.87
2018-09-29T20:47:47.329Z,2.90
2018-09-29T20:50:14.997Z,3.17
2018-09-29T20:52:42.738Z,3.10
2018-09-29T20:55:10.366Z,3.20
2018-09-29T20:57:38.019Z,3.23
2018-09-29T21:00:05.702Z,2.77
2018-09-29T21:02:33.692Z,3.25
2018-09-29T21:05:02.153Z,3.23
2018-09-29T21:07:30.117Z,2.90
2018-09-29T21:09:58.406Z,3.20
2018-09-29T21:12:26.418Z,3.53
2018-09-29T21:14:54.379Z,3.20
2018-09-29T21:17:22.331Z,3.10
2018-09-29T21:19:50.041Z,3.43
2018-09-29T21:22:18.147Z,3.55
2018-09-29T21:24:46.238Z,3.83
2018-09-29T21:27:14.006Z,3.70
2018-09-29T21:29:42.010Z,3.60
2018-09-29T21:32:10.933Z,3.10
2018-09-29T21:34:40.137Z,3.00
2018-09-29T21:37:08.758Z,2.80
2018-09-29T21:39:37.399Z,3.00
2018-09-29T21:42:05.501Z,2.93
2018-09-29T21:44:33.490Z,3.62
2018-09-29T21:47:01.577Z,2.70
2018-09-29T21:49:29.933Z,2.80
2018-09-29T21:51:57.999Z,2.63
2018-09-29T21:54:25.831Z,3.45
2018-09-29T21:56:53.977Z,3.10
2018-09-29T21:59:22.003Z,3.40
2018-09-29T22:01:49.792Z,3.10
2018-09-29T22:04:17.730Z,3.00
2018-09-29T22:06:45.997Z,3.17
2018-09-29T22:09:14.013Z,2.83
2018-09-29T22:11:44.606Z,3.25
2018-09-29T22:14:12.805Z,2.80
2018-09-29T22:16:41.069Z,2.90
2018-09-29T22:19:09.979Z,2.35
2018-09-29T22:21:38.261Z,2.50
2018-09-29T22:24:06.485Z,2.50
2018-09-29T22:26:34.957Z,2.40
2018-09-29T22:29:03.170Z,2.27
2018-09-29T22:31:31.208Z,2.87
2018-09-29T22:33:59.293Z,2.40
2018-09-29T22:36:26.966Z,2.70
2018-09-29T22:38:55.257Z,2.33
2018-09-29T22:41:23.321Z,2.40
2018-09-29T22:43:51.417Z,2.20
2018-09-29T22:46:20.871Z,2.17
2018-09-29T22:48:48.913Z,2.53
2018-09-29T22:51:16.739Z,2.10
2018-09-29T22:53:44.857Z,2.40
2018-09-29T22:56:12.777Z,2.30
2018-09-29T22:58:40.690Z,2.10
2018-09-29T23:01:08.499Z,2.47
2018-09-29T23:03:36.184Z,2.20
2018-09-29T23:06:03.847Z,2.00
2018-09-29T23:08:31.655Z,2.28
2018-09-29T23:10:59.375Z,2.07
2018-09-29T23:13:27.025Z,2.20
2018-09-29T23:15:54.920Z,2.20
2018-09-29T23:18:22.545Z,2.03
2018-09-29T23:20:50.270Z,2.30
2018-09-29T23:23:17.866Z,1.90
2018-09-29T23:25:45.457Z,2.20
2018-09-29T23:28:13.110Z,2.00
2018-09-29T23:30:40.728Z,2.05
2018-09-29T23:33:08.443Z,2.13
2018-09-29T23:35:36.046Z,2.10
2018-09-29T23:38:03.783Z,2.03
2018-09-29T23:40:31.388Z,1.98
2018-09-29T23:42:59.095Z,2.20
2018-09-29T23:45:26.879Z,2.20
2018-09-29T23:47:54.524Z,2.17
2018-09-29T23:50:22.191Z,1.97
2018-09-29T23:52:49.832Z,2.20
2018-09-29T23:55:17.500Z,1.93
2018-09-29T23:57:45.134Z,1.87
